sensor_id;sensor_type;location;lat;lon;timestamp;P1;durP1;ratioP1;P2;durP2;ratioP2
9972;SDS011;5027;53.560;10.062;2022-10-31T00:04:06;10.07;;;9.07;;
9972;SDS011;5027;53.560;10.062;2022-10-31T00:06:32;10.80;;;9.70;;
9972;SDS011;5027;53.560;10.062;2022-10-31T00:09:00;10.93;;;9.93;;
9972;SDS011;5027;53.560;10.062;2022-10-31T00:11:28;10.60;;;9.57;;
9972;SDS011;5027;53.560;10.062;2022-10-31T00:13:56;9.97;;;9.00;;
9972;SDS011;5027;53.560;10.062;2022-10-31T00:16:26;10.20;;;9.30;;
9972;SDS011;5027;53.560;10.062;2022-10-31T00:18:55;9.70;;;8.70;;
9972;SDS011;5027;53.560;10.062;2022-10-31T00:21:24;9.37;;;8.47;;
9972;SDS011;5027;53.560;10.062;2022-10-31T00:23:51;10.00;;;9.10;;
9972;SDS011;5027;53.560;10.062;2022-10-31T00:26:18;10.27;;;9.27;;
9972;SDS011;5027;53.560;10.062;2022-10-31T00:28:46;9.67;;;8.83;;
9972;SDS011;5027;53.560;10.062;2022-10-31T00:31:13;9.50;;;8.53;;
9972;SDS011;5027;53.560;10.062;2022-10-31T00:33:40;9.20;;;8.23;;
9972;SDS011;5027;53.560;10.062;2022-10-31T00:36:09;9.03;;;8.13;;
9972;SDS011;5027;53.560;10.062;2022-10-31T00:38:39;9.13;;;8.23;;
9972;SDS011;5027;53.560;10.062;2022-10-31T00:41:06;9.20;;;8.30;;
9972;SDS011;5027;53.560;10.062;2022-10-31T00:43:33;10.60;;;8.50;;
9972;SDS011;5027;53.560;10.062;2022-10-31T00:46:00;9.43;;;8.57;;
9972;SDS011;5027;53.560;10.062;2022-10-31T00:48:26;9.37;;;8.53;;
9972;SDS011;5027;53.560;10.062;2022-10-31T00:50:53;10.33;;;8.27;;
9972;SDS011;5027;53.560;10.062;2022-10-31T00:53:21;9.73;;;8.73;;
9972;SDS011;5027;53.560;10.062;2022-10-31T00:55:48;10.03;;;8.83;;
9972;SDS011;5027;53.560;10.062;2022-10-31T00:58:14;9.90;;;8.57;;
9972;SDS011;5027;53.560;10.062;2022-10-31T01:00:41;9.47;;;8.57;;
9972;SDS011;5027;53.560;10.062;2022-10-31T01:03:14;9.40;;;7.70;;
9972;SDS011;5027;53.560;10.062;2022-10-31T01:05:41;9.20;;;8.30;;
9972;SDS011;5027;53.560;10.062;2022-10-31T01:08:07;8.70;;;8.00;;
9972;SDS011;5027;53.560;10.062;2022-10-31T01:10:34;11.90;;;8.53;;
9972;SDS011;5027;53.560;10.062;2022-10-31T01:13:01;9.57;;;8.57;;
9972;SDS011;5027;53.560;10.062;2022-10-31T01:15:28;11.20;;;8.97;;
9972;SDS011;5027;53.560;10.062;2022-10-31T01:17:54;13.40;;;8.47;;
9972;SDS011;5027;53.560;10.062;2022-10-31T01:20:21;10.83;;;9.73;;
9972;SDS011;5027;53.560;10.062;2022-10-31T01:22:48;10.33;;;9.30;;
9972;SDS011;5027;53.560;10.062;2022-10-31T01:25:14;11.53;;;9.70;;
9972;SDS011;5027;53.560;10.062;2022-10-31T01:27:41;10.40;;;9.30;;
9972;SDS011;5027;53.560;10.062;2022-10-31T01:30:09;12.00;;;9.53;;
9972;SDS011;5027;53.560;10.062;2022-10-31T01:32:36;13.17;;;10.53;;
9972;SDS011;5027;53.560;10.062;2022-10-31T01:35:03;13.90;;;10.83;;
9972;SDS011;5027;53.560;10.062;2022-10-31T01:37:30;22.83;;;15.80;;
9972;SDS011;5027;53.560;10.062;2022-10-31T01:39:57;18.20;;;15.17;;
9972;SDS011;5027;53.560;10.062;2022-10-31T01:42:24;23.47;;;15.77;;
9972;SDS011;5027;53.560;10.062;2022-10-31T01:44:52;23.10;;;17.47;;
9972;SDS011;5027;53.560;10.062;2022-10-31T01:47:23;25.67;;;18.37;;
9972;SDS011;5027;53.560;10.062;2022-10-31T01:49:57;24.47;;;17.87;;
9972;SDS011;5027;53.560;10.062;2022-10-31T01:52:36;25.43;;;17.87;;
9972;SDS011;5027;53.560;10.062;2022-10-31T01:55:12;23.07;;;16.87;;
9972;SDS011;5027;53.560;10.062;2022-10-31T01:58:22;27.10;;;17.83;;
9972;SDS011;5027;53.560;10.062;2022-10-31T02:00:51;27.23;;;18.83;;
9972;SDS011;5027;53.560;10.062;2022-10-31T02:03:22;25.83;;;18.93;;
9972;SDS011;5027;53.560;10.062;2022-10-31T02:05:49;22.57;;;18.53;;
9972;SDS011;5027;53.560;10.062;2022-10-31T02:08:30;28.60;;;19.13;;
9972;SDS011;5027;53.560;10.062;2022-10-31T02:10:59;27.63;;;18.70;;
9972;SDS011;5027;53.560;10.062;2022-10-31T02:13:27;24.47;;;18.77;;
9972;SDS011;5027;53.560;10.062;2022-10-31T02:15:56;25.67;;;18.90;;
9972;SDS011;5027;53.560;10.062;2022-10-31T02:18:35;30.60;;;17.97;;
9972;SDS011;5027;53.560;10.062;2022-10-31T02:21:04;27.50;;;18.70;;
9972;SDS011;5027;53.560;10.062;2022-10-31T02:24:00;26.87;;;17.77;;
9972;SDS011;5027;53.560;10.062;2022-10-31T02:32:25;25.30;;;18.10;;
9972;SDS011;5027;53.560;10.062;2022-10-31T02:35:07;26.60;;;19.37;;
9972;SDS011;5027;53.560;10.062;2022-10-31T02:38:04;27.00;;;19.23;;
9972;SDS011;5027;53.560;10.062;2022-10-31T02:43:40;23.20;;;18.87;;
9972;SDS011;5027;53.560;10.062;2022-10-31T02:46:14;30.20;;;19.10;;
9972;SDS011;5027;53.560;10.062;2022-10-31T02:48:51;28.70;;;18.87;;
9972;SDS011;5027;53.560;10.062;2022-10-31T02:51:21;24.40;;;18.57;;
9972;SDS011;5027;53.560;10.062;2022-10-31T02:53:48;23.07;;;17.97;;
9972;SDS011;5027;53.560;10.062;2022-10-31T02:56:16;28.27;;;19.13;;
9972;SDS011;5027;53.560;10.062;2022-10-31T02:58:49;24.13;;;17.43;;
9972;SDS011;5027;53.560;10.062;2022-10-31T03:01:33;26.00;;;19.13;;
9972;SDS011;5027;53.560;10.062;2022-10-31T03:04:29;29.57;;;19.47;;
9972;SDS011;5027;53.560;10.062;2022-10-31T03:09:48;25.17;;;18.27;;
9972;SDS011;5027;53.560;10.062;2022-10-31T03:12:34;26.67;;;17.37;;
9972;SDS011;5027;53.560;10.062;2022-10-31T03:17:50;23.70;;;17.63;;
9972;SDS011;5027;53.560;10.062;2022-10-31T03:20:51;23.80;;;17.63;;
9972;SDS011;5027;53.560;10.062;2022-10-31T03:23:21;25.23;;;18.10;;
9972;SDS011;5027;53.560;10.062;2022-10-31T03:25:50;27.63;;;18.53;;
9972;SDS011;5027;53.560;10.062;2022-10-31T03:28:26;26.10;;;18.10;;
9972;SDS011;5027;53.560;10.062;2022-10-31T03:30:56;24.60;;;19.63;;
9972;SDS011;5027;53.560;10.062;2022-10-31T03:33:30;24.10;;;16.83;;
9972;SDS011;5027;53.560;10.062;2022-10-31T03:36:00;26.53;;;17.80;;
9972;SDS011;5027;53.560;10.062;2022-10-31T03:38:30;28.17;;;18.03;;
9972;SDS011;5027;53.560;10.062;2022-10-31T03:40:59;23.13;;;17.60;;
9972;SDS011;5027;53.560;10.062;2022-10-31T03:43:32;23.73;;;18.07;;
9972;SDS011;5027;53.560;10.062;2022-10-31T03:46:03;25.03;;;18.27;;
9972;SDS011;5027;53.560;10.062;2022-10-31T03:48:31;21.80;;;17.80;;
9972;SDS011;5027;53.560;10.062;2022-10-31T03:53:46;26.07;;;16.57;;
9972;SDS011;5027;53.560;10.062;2022-10-31T03:59:00;27.90;;;17.83;;
9972;SDS011;5027;53.560;10.062;2022-10-31T04:01:30;22.93;;;17.77;;
9972;SDS011;5027;53.560;10.062;2022-10-31T04:04:00;25.50;;;17.87;;
9972;SDS011;5027;53.560;10.062;2022-10-31T04:06:28;22.30;;;16.73;;
9972;SDS011;5027;53.560;10.062;2022-10-31T04:08:57;25.97;;;17.83;;
9972;SDS011;5027;53.560;10.062;2022-10-31T04:11:30;22.93;;;18.07;;
9972;SDS011;5027;53.560;10.062;2022-10-31T04:14:19;25.40;;;17.87;;
9972;SDS011;5027;53.560;10.062;2022-10-31T04:16:49;25.80;;;17.90;;
9972;SDS011;5027;53.560;10.062;2022-10-31T04:19:16;25.83;;;18.33;;
9972;SDS011;5027;53.560;10.062;2022-10-31T04:21:42;27.53;;;19.17;;
9972;SDS011;5027;53.560;10.062;2022-10-31T04:24:10;23.13;;;18.67;;
9972;SDS011;5027;53.560;10.062;2022-10-31T04:26:40;25.63;;;18.40;;
9972;SDS011;5027;53.560;10.062;2022-10-31T04:29:07;26.57;;;18.77;;
9972;SDS011;5027;53.560;10.062;2022-10-31T04:31:34;22.97;;;18.27;;
9972;SDS011;5027;53.560;10.062;2022-10-31T04:34:01;22.50;;;17.70;;
9972;SDS011;5027;53.560;10.062;2022-10-31T04:36:27;25.53;;;19.53;;
9972;SDS011;5027;53.560;10.062;2022-10-31T04:38:54;26.10;;;19.27;;
9972;SDS011;5027;53.560;10.062;2022-10-31T04:41:44;25.37;;;19.80;;
9972;SDS011;5027;53.560;10.062;2022-10-31T04:44:13;24.07;;;17.97;;
9972;SDS011;5027;53.560;10.062;2022-10-31T04:46:39;24.13;;;18.40;;
9972;SDS011;5027;53.560;10.062;2022-10-31T04:49:07;24.93;;;18.37;;
9972;SDS011;5027;53.560;10.062;2022-10-31T04:51:34;29.60;;;19.37;;
9972;SDS011;5027;53.560;10.062;2022-10-31T04:54:01;22.17;;;18.30;;
9972;SDS011;5027;53.560;10.062;2022-10-31T04:56:57;25.60;;;18.17;;
9972;SDS011;5027;53.560;10.062;2022-10-31T04:59:23;29.13;;;20.07;;
9972;SDS011;5027;53.560;10.062;2022-10-31T05:01:52;27.10;;;18.57;;
9972;SDS011;5027;53.560;10.062;2022-10-31T05:04:26;26.73;;;19.43;;
9972;SDS011;5027;53.560;10.062;2022-10-31T05:06:53;27.80;;;19.47;;
9972;SDS011;5027;53.560;10.062;2022-10-31T05:09:20;23.17;;;19.57;;
9972;SDS011;5027;53.560;10.062;2022-10-31T05:11:46;26.63;;;20.77;;
9972;SDS011;5027;53.560;10.062;2022-10-31T05:14:33;23.33;;;18.93;;
9972;SDS011;5027;53.560;10.062;2022-10-31T05:17:30;29.60;;;20.97;;
9972;SDS011;5027;53.560;10.062;2022-10-31T05:20:21;31.63;;;21.97;;
9972;SDS011;5027;53.560;10.062;2022-10-31T05:23:28;28.87;;;20.70;;
9972;SDS011;5027;53.560;10.062;2022-10-31T05:25:54;27.10;;;21.03;;
9972;SDS011;5027;53.560;10.062;2022-10-31T05:28:21;24.97;;;20.57;;
9972;SDS011;5027;53.560;10.062;2022-10-31T05:30:48;24.53;;;19.67;;
9972;SDS011;5027;53.560;10.062;2022-10-31T05:33:16;24.00;;;19.43;;
9972;SDS011;5027;53.560;10.062;2022-10-31T05:36:01;28.60;;;20.40;;
9972;SDS011;5027;53.560;10.062;2022-10-31T05:38:40;22.67;;;19.20;;
9972;SDS011;5027;53.560;10.062;2022-10-31T05:41:11;25.37;;;19.87;;
9972;SDS011;5027;53.560;10.062;2022-10-31T05:43:44;22.70;;;18.97;;
9972;SDS011;5027;53.560;10.062;2022-10-31T05:46:12;27.03;;;20.03;;
9972;SDS011;5027;53.560;10.062;2022-10-31T05:49:05;25.73;;;19.47;;
9972;SDS011;5027;53.560;10.062;2022-10-31T05:52:07;25.63;;;19.70;;
9972;SDS011;5027;53.560;10.062;2022-10-31T05:54:39;22.70;;;18.40;;
9972;SDS011;5027;53.560;10.062;2022-10-31T05:57:07;20.67;;;17.53;;
9972;SDS011;5027;53.560;10.062;2022-10-31T05:59:35;23.30;;;18.23;;
9972;SDS011;5027;53.560;10.062;2022-10-31T06:02:01;20.50;;;17.33;;
9972;SDS011;5027;53.560;10.062;2022-10-31T06:04:47;24.37;;;18.17;;
9972;SDS011;5027;53.560;10.062;2022-10-31T06:07:14;25.23;;;19.93;;
9972;SDS011;5027;53.560;10.062;2022-10-31T06:09:40;23.60;;;18.33;;
9972;SDS011;5027;53.560;10.062;2022-10-31T06:12:07;25.07;;;18.77;;
9972;SDS011;5027;53.560;10.062;2022-10-31T06:15:06;26.97;;;19.53;;
9972;SDS011;5027;53.560;10.062;2022-10-31T06:17:34;24.67;;;19.50;;
9972;SDS011;5027;53.560;10.062;2022-10-31T06:20:23;23.53;;;18.17;;
9972;SDS011;5027;53.560;10.062;2022-10-31T06:23:01;23.20;;;18.27;;
9972;SDS011;5027;53.560;10.062;2022-10-31T06:25:31;24.23;;;18.33;;
9972;SDS011;5027;53.560;10.062;2022-10-31T06:27:58;26.33;;;20.83;;
9972;SDS011;5027;53.560;10.062;2022-10-31T06:30:35;25.83;;;19.77;;
9972;SDS011;5027;53.560;10.062;2022-10-31T06:33:03;28.63;;;19.43;;
9972;SDS011;5027;53.560;10.062;2022-10-31T06:35:33;25.30;;;20.00;;
9972;SDS011;5027;53.560;10.062;2022-10-31T06:38:00;26.87;;;19.57;;
9972;SDS011;5027;53.560;10.062;2022-10-31T06:40:40;25.43;;;20.00;;
9972;SDS011;5027;53.560;10.062;2022-10-31T06:43:20;28.63;;;21.23;;
9972;SDS011;5027;53.560;10.062;2022-10-31T06:45:50;26.13;;;21.13;;
9972;SDS011;5027;53.560;10.062;2022-10-31T06:48:23;27.27;;;20.43;;
9972;SDS011;5027;53.560;10.062;2022-10-31T06:51:09;27.03;;;20.07;;
9972;SDS011;5027;53.560;10.062;2022-10-31T06:53:36;27.17;;;21.47;;
9972;SDS011;5027;53.560;10.062;2022-10-31T06:56:06;27.90;;;21.03;;
9972;SDS011;5027;53.560;10.062;2022-10-31T06:58:38;25.50;;;20.77;;
9972;SDS011;5027;53.560;10.062;2022-10-31T07:01:07;26.17;;;20.00;;
9972;SDS011;5027;53.560;10.062;2022-10-31T07:03:34;24.73;;;20.50;;
9972;SDS011;5027;53.560;10.062;2022-10-31T07:06:00;25.17;;;20.37;;
9972;SDS011;5027;53.560;10.062;2022-10-31T07:08:27;23.27;;;20.13;;
9972;SDS011;5027;53.560;10.062;2022-10-31T07:10:55;27.33;;;21.83;;
9972;SDS011;5027;53.560;10.062;2022-10-31T07:13:24;30.27;;;21.70;;
9972;SDS011;5027;53.560;10.062;2022-10-31T07:16:01;30.03;;;21.07;;
9972;SDS011;5027;53.560;10.062;2022-10-31T07:18:33;23.57;;;19.23;;
9972;SDS011;5027;53.560;10.062;2022-10-31T07:21:01;26.37;;;20.57;;
9972;SDS011;5027;53.560;10.062;2022-10-31T07:23:27;29.33;;;22.13;;
9972;SDS011;5027;53.560;10.062;2022-10-31T07:26:12;27.63;;;21.60;;
9972;SDS011;5027;53.560;10.062;2022-10-31T07:28:45;25.57;;;20.97;;
9972;SDS011;5027;53.560;10.062;2022-10-31T07:31:14;31.87;;;22.77;;
9972;SDS011;5027;53.560;10.062;2022-10-31T07:33:40;30.90;;;21.13;;
9972;SDS011;5027;53.560;10.062;2022-10-31T07:36:25;30.97;;;21.37;;
9972;SDS011;5027;53.560;10.062;2022-10-31T07:38:56;27.03;;;21.10;;
9972;SDS011;5027;53.560;10.062;2022-10-31T07:41:25;22.53;;;18.17;;
9972;SDS011;5027;53.560;10.062;2022-10-31T07:43:52;20.90;;;17.30;;
9972;SDS011;5027;53.560;10.062;2022-10-31T07:46:43;20.10;;;15.33;;
9972;SDS011;5027;53.560;10.062;2022-10-31T07:49:30;20.50;;;15.80;;
9972;SDS011;5027;53.560;10.062;2022-10-31T07:52:35;19.07;;;15.40;;
9972;SDS011;5027;53.560;10.062;2022-10-31T07:55:20;20.07;;;15.63;;
9972;SDS011;5027;53.560;10.062;2022-10-31T07:57:54;20.30;;;14.80;;
9972;SDS011;5027;53.560;10.062;2022-10-31T08:00:28;19.03;;;15.40;;
9972;SDS011;5027;53.560;10.062;2022-10-31T08:03:06;17.80;;;15.90;;
9972;SDS011;5027;53.560;10.062;2022-10-31T08:05:57;18.53;;;15.07;;
9972;SDS011;5027;53.560;10.062;2022-10-31T08:08:35;19.43;;;16.03;;
9972;SDS011;5027;53.560;10.062;2022-10-31T08:11:05;21.03;;;16.73;;
9972;SDS011;5027;53.560;10.062;2022-10-31T08:13:32;18.07;;;15.20;;
9972;SDS011;5027;53.560;10.062;2022-10-31T08:15:59;19.60;;;16.30;;
9972;SDS011;5027;53.560;10.062;2022-10-31T08:18:33;22.43;;;17.80;;
9972;SDS011;5027;53.560;10.062;2022-10-31T08:20:59;18.57;;;15.33;;
9972;SDS011;5027;53.560;10.062;2022-10-31T08:23:26;21.43;;;17.83;;
9972;SDS011;5027;53.560;10.062;2022-10-31T08:25:54;21.73;;;17.40;;
9972;SDS011;5027;53.560;10.062;2022-10-31T08:28:22;22.03;;;17.90;;
9972;SDS011;5027;53.560;10.062;2022-10-31T08:30:51;20.70;;;15.60;;
9972;SDS011;5027;53.560;10.062;2022-10-31T08:33:36;19.60;;;15.33;;
9972;SDS011;5027;53.560;10.062;2022-10-31T08:36:26;20.83;;;14.70;;
9972;SDS011;5027;53.560;10.062;2022-10-31T08:39:13;17.33;;;14.80;;
9972;SDS011;5027;53.560;10.062;2022-10-31T08:41:40;18.67;;;15.77;;
9972;SDS011;5027;53.560;10.062;2022-10-31T08:44:11;21.63;;;16.53;;
9972;SDS011;5027;53.560;10.062;2022-10-31T08:46:37;21.37;;;16.20;;
9972;SDS011;5027;53.560;10.062;2022-10-31T08:49:04;20.27;;;15.90;;
9972;SDS011;5027;53.560;10.062;2022-10-31T08:51:32;22.50;;;17.13;;
9972;SDS011;5027;53.560;10.062;2022-10-31T08:53:59;23.33;;;17.63;;
9972;SDS011;5027;53.560;10.062;2022-10-31T08:56:32;24.50;;;18.87;;
9972;SDS011;5027;53.560;10.062;2022-10-31T08:59:02;19.20;;;17.07;;
9972;SDS011;5027;53.560;10.062;2022-10-31T09:02:04;22.70;;;17.50;;
9972;SDS011;5027;53.560;10.062;2022-10-31T09:04:32;23.30;;;17.60;;
9972;SDS011;5027;53.560;10.062;2022-10-31T09:06:59;24.40;;;19.43;;
9972;SDS011;5027;53.560;10.062;2022-10-31T09:09:46;26.87;;;19.83;;
9972;SDS011;5027;53.560;10.062;2022-10-31T09:12:13;26.80;;;20.50;;
9972;SDS011;5027;53.560;10.062;2022-10-31T09:15:06;24.60;;;18.33;;
9972;SDS011;5027;53.560;10.062;2022-10-31T09:17:45;26.10;;;19.70;;
9972;SDS011;5027;53.560;10.062;2022-10-31T09:20:20;27.63;;;20.63;;
9972;SDS011;5027;53.560;10.062;2022-10-31T09:22:54;28.27;;;20.60;;
9972;SDS011;5027;53.560;10.062;2022-10-31T09:25:22;26.53;;;21.00;;
9972;SDS011;5027;53.560;10.062;2022-10-31T09:28:31;29.33;;;21.23;;
9972;SDS011;5027;53.560;10.062;2022-10-31T09:31:10;25.90;;;20.07;;
9972;SDS011;5027;53.560;10.062;2022-10-31T09:33:54;31.93;;;20.80;;
9972;SDS011;5027;53.560;10.062;2022-10-31T09:36:37;26.53;;;20.43;;
9972;SDS011;5027;53.560;10.062;2022-10-31T09:39:07;26.63;;;21.13;;
9972;SDS011;5027;53.560;10.062;2022-10-31T09:44:51;23.13;;;19.07;;
9972;SDS011;5027;53.560;10.062;2022-10-31T09:47:40;24.47;;;20.03;;
9972;SDS011;5027;53.560;10.062;2022-10-31T09:50:50;27.27;;;19.43;;
9972;SDS011;5027;53.560;10.062;2022-10-31T09:56:21;24.43;;;19.37;;
9972;SDS011;5027;53.560;10.062;2022-10-31T09:58:55;25.07;;;20.47;;
9972;SDS011;5027;53.560;10.062;2022-10-31T10:01:37;27.37;;;21.27;;
9972;SDS011;5027;53.560;10.062;2022-10-31T10:04:25;27.97;;;21.63;;
9972;SDS011;5027;53.560;10.062;2022-10-31T10:10:12;30.73;;;25.60;;
9972;SDS011;5027;53.560;10.062;2022-10-31T10:15:57;28.47;;;25.40;;
9972;SDS011;5027;53.560;10.062;2022-10-31T10:30:07;24.13;;;21.53;;
9972;SDS011;5027;53.560;10.062;2022-10-31T10:32:51;27.73;;;23.60;;
9972;SDS011;5027;53.560;10.062;2022-10-31T10:35:29;27.33;;;23.10;;
9972;SDS011;5027;53.560;10.062;2022-10-31T10:38:19;23.83;;;21.27;;
9972;SDS011;5027;53.560;10.062;2022-10-31T10:40:52;27.90;;;21.33;;
9972;SDS011;5027;53.560;10.062;2022-10-31T10:49:16;21.13;;;18.83;;
9972;SDS011;5027;53.560;10.062;2022-10-31T10:55:12;23.93;;;18.77;;
9972;SDS011;5027;53.560;10.062;2022-10-31T10:58:03;21.90;;;18.67;;
9972;SDS011;5027;53.560;10.062;2022-10-31T11:00:46;25.37;;;19.90;;
9972;SDS011;5027;53.560;10.062;2022-10-31T11:03:14;27.80;;;20.53;;
9972;SDS011;5027;53.560;10.062;2022-10-31T11:05:52;21.27;;;19.07;;
9972;SDS011;5027;53.560;10.062;2022-10-31T11:08:28;21.30;;;19.10;;
9972;SDS011;5027;53.560;10.062;2022-10-31T11:11:03;22.53;;;20.00;;
9972;SDS011;5027;53.560;10.062;2022-10-31T11:13:33;25.37;;;19.97;;
9972;SDS011;5027;53.560;10.062;2022-10-31T11:16:09;22.23;;;19.53;;
9972;SDS011;5027;53.560;10.062;2022-10-31T11:18:39;24.03;;;20.00;;
9972;SDS011;5027;53.560;10.062;2022-10-31T11:21:23;22.37;;;19.30;;
9972;SDS011;5027;53.560;10.062;2022-10-31T11:24:04;25.43;;;20.00;;
9972;SDS011;5027;53.560;10.062;2022-10-31T11:26:41;23.73;;;20.10;;
9972;SDS011;5027;53.560;10.062;2022-10-31T11:29:12;23.60;;;20.40;;
9972;SDS011;5027;53.560;10.062;2022-10-31T11:31:54;23.33;;;20.83;;
9972;SDS011;5027;53.560;10.062;2022-10-31T11:34:28;23.67;;;20.70;;
9972;SDS011;5027;53.560;10.062;2022-10-31T11:37:03;26.20;;;22.27;;
9972;SDS011;5027;53.560;10.062;2022-10-31T11:39:41;25.10;;;22.40;;
9972;SDS011;5027;53.560;10.062;2022-10-31T11:42:10;26.70;;;23.43;;
9972;SDS011;5027;53.560;10.062;2022-10-31T11:44:40;29.97;;;26.33;;
9972;SDS011;5027;53.560;10.062;2022-10-31T11:47:09;27.73;;;24.80;;
9972;SDS011;5027;53.560;10.062;2022-10-31T11:49:40;26.90;;;23.67;;
9972;SDS011;5027;53.560;10.062;2022-10-31T11:52:15;23.97;;;21.43;;
9972;SDS011;5027;53.560;10.062;2022-10-31T11:55:14;26.07;;;23.30;;
9972;SDS011;5027;53.560;10.062;2022-10-31T11:57:43;30.50;;;25.17;;
9972;SDS011;5027;53.560;10.062;2022-10-31T12:03:13;30.83;;;27.57;;
9972;SDS011;5027;53.560;10.062;2022-10-31T12:05:53;32.10;;;28.70;;
9972;SDS011;5027;53.560;10.062;2022-10-31T12:08:44;28.47;;;25.27;;
9972;SDS011;5027;53.560;10.062;2022-10-31T12:14:17;32.27;;;28.33;;
9972;SDS011;5027;53.560;10.062;2022-10-31T12:17:08;30.57;;;26.87;;
9972;SDS011;5027;53.560;10.062;2022-10-31T12:19:42;31.33;;;27.93;;
9972;SDS011;5027;53.560;10.062;2022-10-31T12:22:38;30.03;;;26.93;;
9972;SDS011;5027;53.560;10.062;2022-10-31T12:27:59;25.47;;;22.70;;
9972;SDS011;5027;53.560;10.062;2022-10-31T12:30:28;24.53;;;21.57;;
9972;SDS011;5027;53.560;10.062;2022-10-31T12:36:05;24.90;;;21.23;;
9972;SDS011;5027;53.560;10.062;2022-10-31T12:39:02;32.80;;;27.33;;
9972;SDS011;5027;53.560;10.062;2022-10-31T12:44:56;26.03;;;22.40;;
9972;SDS011;5027;53.560;10.062;2022-10-31T12:50:28;23.97;;;21.27;;
9972;SDS011;5027;53.560;10.062;2022-10-31T12:53:21;23.97;;;21.47;;
9972;SDS011;5027;53.560;10.062;2022-10-31T13:01:34;24.20;;;20.97;;
9972;SDS011;5027;53.560;10.062;2022-10-31T13:06:59;22.37;;;20.03;;
9972;SDS011;5027;53.560;10.062;2022-10-31T13:09:33;23.50;;;21.00;;
9972;SDS011;5027;53.560;10.062;2022-10-31T13:12:21;22.03;;;19.73;;
9972;SDS011;5027;53.560;10.062;2022-10-31T13:14:53;22.20;;;19.90;;
9972;SDS011;5027;53.560;10.062;2022-10-31T13:17:25;25.23;;;21.77;;
9972;SDS011;5027;53.560;10.062;2022-10-31T13:20:01;22.10;;;19.80;;
9972;SDS011;5027;53.560;10.062;2022-10-31T13:22:51;23.77;;;19.93;;
9972;SDS011;5027;53.560;10.062;2022-10-31T13:25:25;21.27;;;17.80;;
9972;SDS011;5027;53.560;10.062;2022-10-31T13:28:00;22.93;;;18.03;;
9972;SDS011;5027;53.560;10.062;2022-10-31T13:30:36;25.10;;;19.40;;
9972;SDS011;5027;53.560;10.062;2022-10-31T13:33:13;20.93;;;17.33;;
9972;SDS011;5027;53.560;10.062;2022-10-31T13:39:16;17.17;;;15.37;;
9972;SDS011;5027;53.560;10.062;2022-10-31T13:44:43;16.63;;;14.80;;
9972;SDS011;5027;53.560;10.062;2022-10-31T13:47:28;18.40;;;15.23;;
9972;SDS011;5027;53.560;10.062;2022-10-31T13:50:03;17.13;;;14.30;;
9972;SDS011;5027;53.560;10.062;2022-10-31T13:52:44;17.70;;;14.17;;
9972;SDS011;5027;53.560;10.062;2022-10-31T13:58:25;15.63;;;14.13;;
9972;SDS011;5027;53.560;10.062;2022-10-31T14:01:11;17.73;;;14.57;;
9972;SDS011;5027;53.560;10.062;2022-10-31T14:03:45;16.40;;;14.80;;
9972;SDS011;5027;53.560;10.062;2022-10-31T14:09:24;17.20;;;14.57;;
9972;SDS011;5027;53.560;10.062;2022-10-31T14:11:52;15.80;;;13.87;;
9972;SDS011;5027;53.560;10.062;2022-10-31T14:14:20;15.63;;;13.97;;
9972;SDS011;5027;53.560;10.062;2022-10-31T14:16:54;15.93;;;13.77;;
9972;SDS011;5027;53.560;10.062;2022-10-31T14:19:23;14.63;;;13.13;;
9972;SDS011;5027;53.560;10.062;2022-10-31T14:21:52;15.93;;;13.90;;
9972;SDS011;5027;53.560;10.062;2022-10-31T14:27:00;15.47;;;12.87;;
9972;SDS011;5027;53.560;10.062;2022-10-31T14:29:51;13.20;;;11.80;;
9972;SDS011;5027;53.560;10.062;2022-10-31T14:32:22;15.30;;;12.93;;
9972;SDS011;5027;53.560;10.062;2022-10-31T14:40:12;17.60;;;15.00;;
9972;SDS011;5027;53.560;10.062;2022-10-31T14:45:34;15.77;;;13.70;;
9972;SDS011;5027;53.560;10.062;2022-10-31T14:50:45;15.03;;;12.50;;
9972;SDS011;5027;53.560;10.062;2022-10-31T14:53:16;10.10;;;8.63;;
9972;SDS011;5027;53.560;10.062;2022-10-31T14:55:46;15.43;;;13.20;;
9972;SDS011;5027;53.560;10.062;2022-10-31T14:58:17;16.63;;;13.50;;
9972;SDS011;5027;53.560;10.062;2022-10-31T15:00:48;14.80;;;13.03;;
9972;SDS011;5027;53.560;10.062;2022-10-31T15:03:28;16.30;;;12.33;;
9972;SDS011;5027;53.560;10.062;2022-10-31T15:06:03;16.33;;;12.67;;
9972;SDS011;5027;53.560;10.062;2022-10-31T15:08:46;13.93;;;12.47;;
9972;SDS011;5027;53.560;10.062;2022-10-31T15:11:16;13.57;;;12.13;;
9972;SDS011;5027;53.560;10.062;2022-10-31T15:16:20;18.97;;;13.70;;
9972;SDS011;5027;53.560;10.062;2022-10-31T15:19:00;14.90;;;12.83;;
9972;SDS011;5027;53.560;10.062;2022-10-31T15:21:30;18.93;;;14.47;;
9972;SDS011;5027;53.560;10.062;2022-10-31T15:23:57;17.27;;;13.63;;
9972;SDS011;5027;53.560;10.062;2022-10-31T15:26:27;17.77;;;13.80;;
9972;SDS011;5027;53.560;10.062;2022-10-31T15:29:03;16.03;;;13.63;;
9972;SDS011;5027;53.560;10.062;2022-10-31T15:31:31;18.20;;;14.60;;
9972;SDS011;5027;53.560;10.062;2022-10-31T15:34:00;17.30;;;14.93;;
9972;SDS011;5027;53.560;10.062;2022-10-31T15:36:34;15.57;;;13.80;;
9972;SDS011;5027;53.560;10.062;2022-10-31T15:39:04;8.13;;;7.33;;
9972;SDS011;5027;53.560;10.062;2022-10-31T15:41:47;15.77;;;13.80;;
9972;SDS011;5027;53.560;10.062;2022-10-31T15:47:05;18.63;;;15.47;;
9972;SDS011;5027;53.560;10.062;2022-10-31T15:49:49;16.90;;;15.10;;
9972;SDS011;5027;53.560;10.062;2022-10-31T15:52:24;19.00;;;15.40;;
9972;SDS011;5027;53.560;10.062;2022-10-31T15:57:39;16.73;;;14.70;;
9972;SDS011;5027;53.560;10.062;2022-10-31T16:03:05;17.77;;;15.03;;
9972;SDS011;5027;53.560;10.062;2022-10-31T16:05:38;18.57;;;14.43;;
9972;SDS011;5027;53.560;10.062;2022-10-31T16:10:57;16.20;;;13.83;;
9972;SDS011;5027;53.560;10.062;2022-10-31T16:16:28;16.80;;;13.87;;
9972;SDS011;5027;53.560;10.062;2022-10-31T16:19:02;10.53;;;9.43;;
9972;SDS011;5027;53.560;10.062;2022-10-31T16:22:02;18.40;;;16.00;;
9972;SDS011;5027;53.560;10.062;2022-10-31T16:24:45;19.03;;;15.37;;
9972;SDS011;5027;53.560;10.062;2022-10-31T16:27:21;21.33;;;16.23;;
9972;SDS011;5027;53.560;10.062;2022-10-31T16:29:52;18.40;;;14.90;;
9972;SDS011;5027;53.560;10.062;2022-10-31T16:35:34;19.17;;;14.63;;
9972;SDS011;5027;53.560;10.062;2022-10-31T16:38:07;18.13;;;15.83;;
9972;SDS011;5027;53.560;10.062;2022-10-31T16:40:37;6.30;;;5.70;;
9972;SDS011;5027;53.560;10.062;2022-10-31T16:43:08;18.07;;;14.83;;
9972;SDS011;5027;53.560;10.062;2022-10-31T16:45:39;13.33;;;11.90;;
9972;SDS011;5027;53.560;10.062;2022-10-31T16:48:19;14.97;;;11.83;;
9972;SDS011;5027;53.560;10.062;2022-10-31T16:50:48;16.20;;;14.07;;
9972;SDS011;5027;53.560;10.062;2022-10-31T16:53:18;16.40;;;13.93;;
9972;SDS011;5027;53.560;10.062;2022-10-31T16:55:49;16.40;;;13.20;;
9972;SDS011;5027;53.560;10.062;2022-10-31T16:58:21;12.90;;;11.30;;
9972;SDS011;5027;53.560;10.062;2022-10-31T17:00:54;19.50;;;15.43;;
9972;SDS011;5027;53.560;10.062;2022-10-31T17:03:21;18.43;;;14.30;;
9972;SDS011;5027;53.560;10.062;2022-10-31T17:05:48;19.87;;;14.60;;
9972;SDS011;5027;53.560;10.062;2022-10-31T17:08:15;17.40;;;14.87;;
9972;SDS011;5027;53.560;10.062;2022-10-31T17:10:42;13.57;;;12.17;;
9972;SDS011;5027;53.560;10.062;2022-10-31T17:13:16;15.63;;;13.73;;
9972;SDS011;5027;53.560;10.062;2022-10-31T17:15:46;16.53;;;14.50;;
9972;SDS011;5027;53.560;10.062;2022-10-31T17:18:15;19.33;;;14.83;;
9972;SDS011;5027;53.560;10.062;2022-10-31T17:20:49;18.13;;;15.77;;
9972;SDS011;5027;53.560;10.062;2022-10-31T17:23:16;19.77;;;16.07;;
9972;SDS011;5027;53.560;10.062;2022-10-31T17:25:43;21.00;;;15.47;;